sensor_id;sensor_type;location;lat;lon;timestamp;pressure;altitude;pressure_sealevel;temperature;humidity
50430;BME280;36359;41.556;-8.418;2022-07-25T00:01:00;100592.00;;;21.96;66.59
50430;BME280;36359;41.556;-8.418;2022-07-25T00:03:26;100584.09;;;22.13;66.90
50430;BME280;36359;41.556;-8.418;2022-07-25T00:05:52;100584.31;;;22.56;66.17
50430;BME280;36359;41.556;-8.418;2022-07-25T00:08:17;100571.63;;;23.05;65.12
50430;BME280;36359;41.556;-8.418;2022-07-25T00:10:43;100580.84;;;23.43;63.02
50430;BME280;36359;41.556;-8.418;2022-07-25T00:13:09;100576.94;;;23.50;62.40
50430;BME280;36359;41.556;-8.418;2022-07-25T00:15:35;100584.25;;;23.45;62.25
50430;BME280;36359;41.556;-8.418;2022-07-25T00:18:01;100580.22;;;23.41;62.78
50430;BME280;36359;41.556;-8.418;2022-07-25T00:20:26;100578.41;;;23.09;62.43
50430;BME280;36359;41.556;-8.418;2022-07-25T00:22:52;100592.59;;;22.18;64.09
50430;BME280;36359;41.556;-8.418;2022-07-25T00:25:18;100591.94;;;21.11;67.43
50430;BME280;36359;41.556;-8.418;2022-07-25T00:27:44;100585.16;;;20.74;70.90
50430;BME280;36359;41.556;-8.418;2022-07-25T00:30:09;100587.72;;;21.15;70.79
50430;BME280;36359;41.556;-8.418;2022-07-25T00:32:35;100586.75;;;21.81;69.26
50430;BME280;36359;41.556;-8.418;2022-07-25T00:35:03;100577.97;;;22.49;65.76
50430;BME280;36359;41.556;-8.418;2022-07-25T00:37:29;100586.69;;;22.01;65.97
50430;BME280;36359;41.556;-8.418;2022-07-25T00:39:54;100589.34;;;21.69;65.77
50430;BME280;36359;41.556;-8.418;2022-07-25T00:42:20;100586.13;;;21.86;68.08
50430;BME280;36359;41.556;-8.418;2022-07-25T00:44:49;100578.16;;;21.44;67.33
50430;BME280;36359;41.556;-8.418;2022-07-25T00:47:15;100584.09;;;20.81;69.34
50430;BME280;36359;41.556;-8.418;2022-07-25T00:49:41;100586.72;;;20.28;72.64
50430;BME280;36359;41.556;-8.418;2022-07-25T00:52:07;100583.66;;;21.04;70.52
50430;BME280;36359;41.556;-8.418;2022-07-25T00:54:33;100584.88;;;21.75;69.35
50430;BME280;36359;41.556;-8.418;2022-07-25T00:56:59;100582.47;;;21.85;66.64
50430;BME280;36359;41.556;-8.418;2022-07-25T00:59:24;100589.25;;;21.96;67.15
50430;BME280;36359;41.556;-8.418;2022-07-25T01:01:50;100584.56;;;22.48;65.38
50430;BME280;36359;41.556;-8.418;2022-07-25T01:04:16;100591.88;;;22.29;66.07
50430;BME280;36359;41.556;-8.418;2022-07-25T01:06:43;100587.25;;;21.58;65.90
50430;BME280;36359;41.556;-8.418;2022-07-25T01:09:09;100586.03;;;20.94;68.03
50430;BME280;36359;41.556;-8.418;2022-07-25T01:11:34;100593.88;;;21.37;69.58
50430;BME280;36359;41.556;-8.418;2022-07-25T01:14:00;100596.84;;;21.42;69.11
50430;BME280;36359;41.556;-8.418;2022-07-25T01:16:26;100582.63;;;20.85;68.91
50430;BME280;36359;41.556;-8.418;2022-07-25T01:18:52;100577.47;;;21.55;69.93
50430;BME280;36359;41.556;-8.418;2022-07-25T01:21:19;100579.72;;;21.85;68.93
50430;BME280;36359;41.556;-8.418;2022-07-25T01:23:44;100571.31;;;22.57;66.56
50430;BME280;36359;41.556;-8.418;2022-07-25T01:26:10;100571.78;;;22.54;64.59
50430;BME280;36359;41.556;-8.418;2022-07-25T01:28:36;100575.69;;;21.94;64.02
50430;BME280;36359;41.556;-8.418;2022-07-25T01:31:02;100565.41;;;21.30;67.48
50430;BME280;36359;41.556;-8.418;2022-07-25T01:33:28;100564.97;;;22.18;67.40
50430;BME280;36359;41.556;-8.418;2022-07-25T01:35:53;100558.09;;;22.59;65.21
50430;BME280;36359;41.556;-8.418;2022-07-25T01:38:19;100550.22;;;21.79;64.46
50430;BME280;36359;41.556;-8.418;2022-07-25T01:40:45;100555.28;;;21.82;66.46
50430;BME280;36359;41.556;-8.418;2022-07-25T01:43:11;100551.75;;;22.27;65.81
50430;BME280;36359;41.556;-8.418;2022-07-25T01:45:38;100557.22;;;22.33;65.71
50430;BME280;36359;41.556;-8.418;2022-07-25T01:48:04;100555.63;;;22.06;65.16
50430;BME280;36359;41.556;-8.418;2022-07-25T01:50:30;100545.38;;;21.74;66.56
50430;BME280;36359;41.556;-8.418;2022-07-25T01:52:55;100549.06;;;21.22;67.87
50430;BME280;36359;41.556;-8.418;2022-07-25T01:55:21;100552.19;;;21.65;67.97
50430;BME280;36359;41.556;-8.418;2022-07-25T01:57:47;100545.84;;;21.31;67.04
50430;BME280;36359;41.556;-8.418;2022-07-25T02:00:14;100548.31;;;21.80;67.59
50430;BME280;36359;41.556;-8.418;2022-07-25T02:02:41;100541.88;;;22.37;66.68
50430;BME280;36359;41.556;-8.418;2022-07-25T02:07:37;100537.56;;;22.10;66.18
50430;BME280;36359;41.556;-8.418;2022-07-25T02:10:05;100541.19;;;21.32;67.11
50430;BME280;36359;41.556;-8.418;2022-07-25T02:12:31;100544.41;;;20.96;68.20
50430;BME280;36359;41.556;-8.418;2022-07-25T02:14:56;100548.88;;;20.63;70.71
50430;BME280;36359;41.556;-8.418;2022-07-25T02:17:22;100548.63;;;20.58;70.69
50430;BME280;36359;41.556;-8.418;2022-07-25T02:19:48;100549.50;;;20.59;72.34
50430;BME280;36359;41.556;-8.418;2022-07-25T02:22:14;100547.00;;;21.82;69.44
50430;BME280;36359;41.556;-8.418;2022-07-25T02:24:40;100540.72;;;21.62;66.19
50430;BME280;36359;41.556;-8.418;2022-07-25T02:27:06;100544.00;;;20.92;68.14
50430;BME280;36359;41.556;-8.418;2022-07-25T02:29:31;100537.84;;;20.63;71.30
50430;BME280;36359;41.556;-8.418;2022-07-25T02:31:57;100549.09;;;20.89;69.67
50430;BME280;36359;41.556;-8.418;2022-07-25T02:34:23;100544.84;;;20.79;67.87
50430;BME280;36359;41.556;-8.418;2022-07-25T02:36:49;100543.53;;;20.55;68.29
50430;BME280;36359;41.556;-8.418;2022-07-25T02:39:15;100548.22;;;20.61;72.71
50430;BME280;36359;41.556;-8.418;2022-07-25T02:41:41;100541.84;;;21.27;68.99
50430;BME280;36359;41.556;-8.418;2022-07-25T02:44:07;100542.63;;;21.68;69.02
50430;BME280;36359;41.556;-8.418;2022-07-25T02:46:32;100540.63;;;22.33;66.78
50430;BME280;36359;41.556;-8.418;2022-07-25T02:48:58;100536.53;;;22.74;65.44
50430;BME280;36359;41.556;-8.418;2022-07-25T02:51:24;100551.75;;;22.27;62.32
50430;BME280;36359;41.556;-8.418;2022-07-25T02:53:50;100548.22;;;21.99;67.57
50430;BME280;36359;41.556;-8.418;2022-07-25T02:56:16;100546.94;;;21.50;64.91
50430;BME280;36359;41.556;-8.418;2022-07-25T02:58:42;100544.47;;;22.32;66.09
50430;BME280;36359;41.556;-8.418;2022-07-25T03:01:07;100544.28;;;22.59;62.60
50430;BME280;36359;41.556;-8.418;2022-07-25T03:03:33;100541.59;;;21.55;62.84
50430;BME280;36359;41.556;-8.418;2022-07-25T03:05:59;100539.38;;;20.11;68.34
50430;BME280;36359;41.556;-8.418;2022-07-25T03:08:25;100539.63;;;20.23;73.32
50430;BME280;36359;41.556;-8.418;2022-07-25T03:10:51;100536.34;;;21.07;70.86
50430;BME280;36359;41.556;-8.418;2022-07-25T03:13:17;100541.00;;;20.54;66.90
50430;BME280;36359;41.556;-8.418;2022-07-25T03:15:43;100546.31;;;20.82;71.45
50430;BME280;36359;41.556;-8.418;2022-07-25T03:18:09;100546.28;;;21.35;69.98
50430;BME280;36359;41.556;-8.418;2022-07-25T03:20:35;100545.13;;;21.76;66.94
50430;BME280;36359;41.556;-8.418;2022-07-25T03:23:01;100547.78;;;21.11;67.56
50430;BME280;36359;41.556;-8.418;2022-07-25T03:25:26;100549.91;;;21.02;66.18
50430;BME280;36359;41.556;-8.418;2022-07-25T03:27:53;100549.50;;;20.66;70.17
50430;BME280;36359;41.556;-8.418;2022-07-25T03:30:18;100551.59;;;21.23;70.29
50430;BME280;36359;41.556;-8.418;2022-07-25T03:32:44;100553.06;;;22.11;67.43
50430;BME280;36359;41.556;-8.418;2022-07-25T03:35:10;100545.09;;;22.66;65.06
50430;BME280;36359;41.556;-8.418;2022-07-25T03:37:36;100553.03;;;21.66;63.64
50430;BME280;36359;41.556;-8.418;2022-07-25T03:40:02;100541.16;;;22.17;65.53
50430;BME280;36359;41.556;-8.418;2022-07-25T03:42:28;100543.34;;;21.17;65.35
50430;BME280;36359;41.556;-8.418;2022-07-25T03:44:53;100543.59;;;21.87;67.14
50430;BME280;36359;41.556;-8.418;2022-07-25T03:47:19;100539.81;;;22.33;65.57
50430;BME280;36359;41.556;-8.418;2022-07-25T03:49:48;100545.38;;;22.19;62.92
50430;BME280;36359;41.556;-8.418;2022-07-25T03:52:13;100540.16;;;21.98;64.64
50430;BME280;36359;41.556;-8.418;2022-07-25T03:54:39;100528.38;;;22.22;64.20
50430;BME280;36359;41.556;-8.418;2022-07-25T03:57:05;100531.13;;;22.22;63.22
50430;BME280;36359;41.556;-8.418;2022-07-25T03:59:31;100529.22;;;22.23;62.59
50430;BME280;36359;41.556;-8.418;2022-07-25T04:01:56;100544.63;;;21.21;66.49
50430;BME280;36359;41.556;-8.418;2022-07-25T04:04:22;100545.38;;;21.68;64.69
50430;BME280;36359;41.556;-8.418;2022-07-25T04:06:48;100540.03;;;21.73;66.62
50430;BME280;36359;41.556;-8.418;2022-07-25T04:09:14;100535.91;;;21.30;64.74
50430;BME280;36359;41.556;-8.418;2022-07-25T04:11:40;100541.44;;;21.04;66.07
50430;BME280;36359;41.556;-8.418;2022-07-25T04:14:06;100534.16;;;20.30;67.77
50430;BME280;36359;41.556;-8.418;2022-07-25T04:16:32;100532.47;;;20.49;70.72
50430;BME280;36359;41.556;-8.418;2022-07-25T04:18:58;100537.16;;;21.48;68.77
50430;BME280;36359;41.556;-8.418;2022-07-25T04:21:25;100532.34;;;22.33;65.59
50430;BME280;36359;41.556;-8.418;2022-07-25T04:23:51;100532.69;;;22.43;64.15
50430;BME280;36359;41.556;-8.418;2022-07-25T04:26:17;100540.34;;;21.51;63.02
50430;BME280;36359;41.556;-8.418;2022-07-25T04:28:43;100539.31;;;21.06;66.11
50430;BME280;36359;41.556;-8.418;2022-07-25T04:31:09;100542.25;;;21.18;65.53
50430;BME280;36359;41.556;-8.418;2022-07-25T04:33:36;100537.22;;;20.68;66.33
50430;BME280;36359;41.556;-8.418;2022-07-25T04:38:33;100546.66;;;21.65;66.25
50430;BME280;36359;41.556;-8.418;2022-07-25T04:41:00;100540.66;;;21.82;64.23
50430;BME280;36359;41.556;-8.418;2022-07-25T04:43:27;100545.13;;;21.76;66.27
50430;BME280;36359;41.556;-8.418;2022-07-25T04:45:53;100550.53;;;22.03;64.52
50430;BME280;36359;41.556;-8.418;2022-07-25T04:48:19;100544.19;;;22.40;63.59
50430;BME280;36359;41.556;-8.418;2022-07-25T04:50:44;100543.56;;;22.70;63.58
50430;BME280;36359;41.556;-8.418;2022-07-25T04:53:10;100541.09;;;22.87;62.55
50430;BME280;36359;41.556;-8.418;2022-07-25T04:55:36;100540.63;;;22.90;62.15
50430;BME280;36359;41.556;-8.418;2022-07-25T04:58:06;100539.75;;;22.96;62.30
50430;BME280;36359;41.556;-8.418;2022-07-25T05:00:32;100533.91;;;22.16;61.37
50430;BME280;36359;41.556;-8.418;2022-07-25T05:02:58;100546.88;;;22.22;63.34
50430;BME280;36359;41.556;-8.418;2022-07-25T05:05:24;100554.84;;;21.85;60.54
50430;BME280;36359;41.556;-8.418;2022-07-25T05:07:57;100559.38;;;20.33;65.14
50430;BME280;36359;41.556;-8.418;2022-07-25T05:10:24;100551.41;;;19.21;72.92
50430;BME280;36359;41.556;-8.418;2022-07-25T05:12:50;100559.97;;;19.04;73.42
50430;BME280;36359;41.556;-8.418;2022-07-25T05:15:16;100561.47;;;19.07;71.18
50430;BME280;36359;41.556;-8.418;2022-07-25T05:17:42;100546.16;;;18.12;74.57
50430;BME280;36359;41.556;-8.418;2022-07-25T05:20:09;100564.28;;;17.32;79.16
50430;BME280;36359;41.556;-8.418;2022-07-25T05:22:35;100569.81;;;16.94;81.98
50430;BME280;36359;41.556;-8.418;2022-07-25T05:25:01;100574.31;;;17.84;77.53
50430;BME280;36359;41.556;-8.418;2022-07-25T05:27:27;100568.25;;;19.11;78.08
50430;BME280;36359;41.556;-8.418;2022-07-25T05:29:53;100578.50;;;20.41;73.10
50430;BME280;36359;41.556;-8.418;2022-07-25T05:32:18;100583.88;;;20.83;69.07
50430;BME280;36359;41.556;-8.418;2022-07-25T05:34:44;100580.00;;;20.51;66.59
50430;BME280;36359;41.556;-8.418;2022-07-25T05:37:10;100583.88;;;21.16;68.94
50430;BME280;36359;41.556;-8.418;2022-07-25T05:39:36;100578.75;;;20.67;68.24
50430;BME280;36359;41.556;-8.418;2022-07-25T05:42:04;100580.84;;;20.51;68.54
50430;BME280;36359;41.556;-8.418;2022-07-25T05:44:30;100583.34;;;20.33;67.13
50430;BME280;36359;41.556;-8.418;2022-07-25T05:46:56;100581.78;;;20.17;68.47
50430;BME280;36359;41.556;-8.418;2022-07-25T05:49:21;100577.47;;;19.94;68.39
50430;BME280;36359;41.556;-8.418;2022-07-25T05:51:47;100571.88;;;20.29;69.18
50430;BME280;36359;41.556;-8.418;2022-07-25T05:54:13;100572.84;;;20.08;68.77
50430;BME280;36359;41.556;-8.418;2022-07-25T05:56:39;100569.13;;;19.74;69.35
50430;BME280;36359;41.556;-8.418;2022-07-25T05:59:04;100572.69;;;19.68;71.84
50430;BME280;36359;41.556;-8.418;2022-07-25T06:01:30;100574.69;;;19.88;70.45
50430;BME280;36359;41.556;-8.418;2022-07-25T06:03:56;100577.22;;;19.83;72.94
50430;BME280;36359;41.556;-8.418;2022-07-25T06:06:22;100581.41;;;19.79;70.07
50430;BME280;36359;41.556;-8.418;2022-07-25T06:08:48;100575.78;;;20.55;70.05
50430;BME280;36359;41.556;-8.418;2022-07-25T06:11:13;100580.28;;;20.08;69.06
50430;BME280;36359;41.556;-8.418;2022-07-25T06:13:39;100584.75;;;19.67;70.67
50430;BME280;36359;41.556;-8.418;2022-07-25T06:16:05;100581.09;;;20.56;71.61
50430;BME280;36359;41.556;-8.418;2022-07-25T06:18:31;100586.41;;;21.31;68.15
50430;BME280;36359;41.556;-8.418;2022-07-25T06:20:57;100589.91;;;21.91;66.29
50430;BME280;36359;41.556;-8.418;2022-07-25T06:23:23;100596.19;;;20.74;66.64
50430;BME280;36359;41.556;-8.418;2022-07-25T06:25:48;100581.38;;;19.72;70.66
50430;BME280;36359;41.556;-8.418;2022-07-25T06:28:14;100592.09;;;19.32;72.87
50430;BME280;36359;41.556;-8.418;2022-07-25T06:30:41;100593.03;;;18.68;76.00
50430;BME280;36359;41.556;-8.418;2022-07-25T06:33:07;100596.47;;;17.53;81.72
50430;BME280;36359;41.556;-8.418;2022-07-25T06:35:33;100596.50;;;18.19;80.96
50430;BME280;36359;41.556;-8.418;2022-07-25T06:37:59;100592.84;;;19.76;76.78
50430;BME280;36359;41.556;-8.418;2022-07-25T06:40:25;100601.31;;;20.22;72.68
50430;BME280;36359;41.556;-8.418;2022-07-25T06:42:51;100593.66;;;20.17;71.50
50430;BME280;36359;41.556;-8.418;2022-07-25T06:45:17;100594.47;;;20.11;71.65
50430;BME280;36359;41.556;-8.418;2022-07-25T06:47:43;100603.38;;;20.88;70.82
50430;BME280;36359;41.556;-8.418;2022-07-25T06:50:12;100602.56;;;21.07;69.88
50430;BME280;36359;41.556;-8.418;2022-07-25T06:52:39;100603.41;;;21.48;68.28
50430;BME280;36359;41.556;-8.418;2022-07-25T06:55:07;100597.84;;;20.61;69.82
50430;BME280;36359;41.556;-8.418;2022-07-25T06:57:33;100609.94;;;20.60;70.50
50430;BME280;36359;41.556;-8.418;2022-07-25T06:59:59;100602.97;;;21.11;69.48
50430;BME280;36359;41.556;-8.418;2022-07-25T07:02:25;100611.91;;;21.13;68.04
50430;BME280;36359;41.556;-8.418;2022-07-25T07:04:51;100614.63;;;20.93;68.64
50430;BME280;36359;41.556;-8.418;2022-07-25T07:07:17;100608.91;;;20.20;70.62
50430;BME280;36359;41.556;-8.418;2022-07-25T07:09:43;100619.88;;;20.00;72.99
50430;BME280;36359;41.556;-8.418;2022-07-25T07:12:09;100622.63;;;20.00;72.92
50430;BME280;36359;41.556;-8.418;2022-07-25T07:14:35;100624.72;;;19.98;73.83
50430;BME280;36359;41.556;-8.418;2022-07-25T07:17:05;100633.63;;;20.48;72.79
50430;BME280;36359;41.556;-8.418;2022-07-25T07:19:34;100637.31;;;20.82;70.59
50430;BME280;36359;41.556;-8.418;2022-07-25T07:22:00;100642.88;;;21.22;69.38
50430;BME280;36359;41.556;-8.418;2022-07-25T07:24:26;100654.75;;;21.75;67.66
50430;BME280;36359;41.556;-8.418;2022-07-25T07:26:53;100641.69;;;22.61;64.16
50430;BME280;36359;41.556;-8.418;2022-07-25T07:29:19;100655.47;;;23.06;62.59
50430;BME280;36359;41.556;-8.418;2022-07-25T07:31:45;100650.00;;;22.99;62.32
50430;BME280;36359;41.556;-8.418;2022-07-25T07:34:11;100652.31;;;22.64;63.49
50430;BME280;36359;41.556;-8.418;2022-07-25T07:36:38;100661.47;;;22.13;65.18
50430;BME280;36359;41.556;-8.418;2022-07-25T07:39:04;100670.63;;;22.07;65.49
50430;BME280;36359;41.556;-8.418;2022-07-25T07:41:29;100663.63;;;21.97;65.53
50430;BME280;36359;41.556;-8.418;2022-07-25T07:43:55;100663.06;;;22.40;64.48
50430;BME280;36359;41.556;-8.418;2022-07-25T07:46:27;100662.56;;;21.98;66.11
50430;BME280;36359;41.556;-8.418;2022-07-25T07:48:53;100667.00;;;22.19;65.92
50430;BME280;36359;41.556;-8.418;2022-07-25T07:51:18;100669.22;;;21.71;66.53
50430;BME280;36359;41.556;-8.418;2022-07-25T07:53:44;100656.03;;;21.53;67.90
50430;BME280;36359;41.556;-8.418;2022-07-25T07:56:29;100656.41;;;22.03;66.11
50430;BME280;36359;41.556;-8.418;2022-07-25T07:58:55;100658.19;;;22.42;64.25
50430;BME280;36359;41.556;-8.418;2022-07-25T08:01:20;100660.94;;;22.42;64.46
50430;BME280;36359;41.556;-8.418;2022-07-25T08:03:46;100663.50;;;22.37;64.04
50430;BME280;36359;41.556;-8.418;2022-07-25T08:06:12;100655.28;;;22.17;62.50
50430;BME280;36359;41.556;-8.418;2022-07-25T08:08:38;100665.19;;;21.53;65.14
50430;BME280;36359;41.556;-8.418;2022-07-25T08:11:04;100663.69;;;21.77;63.85
50430;BME280;36359;41.556;-8.418;2022-07-25T08:13:30;100656.28;;;21.38;65.06
50430;BME280;36359;41.556;-8.418;2022-07-25T08:15:59;100669.44;;;21.63;65.29
50430;BME280;36359;41.556;-8.418;2022-07-25T08:18:27;100659.25;;;22.41;63.12
50430;BME280;36359;41.556;-8.418;2022-07-25T08:20:59;100646.22;;;22.87;62.40
50430;BME280;36359;41.556;-8.418;2022-07-25T08:23:29;100649.31;;;23.35;59.54
50430;BME280;36359;41.556;-8.418;2022-07-25T08:25:56;100648.22;;;23.37;59.94
50430;BME280;36359;41.556;-8.418;2022-07-25T08:28:22;100632.16;;;23.45;59.58
50430;BME280;36359;41.556;-8.418;2022-07-25T08:30:47;100643.88;;;23.22;59.76
50430;BME280;36359;41.556;-8.418;2022-07-25T08:33:14;100653.53;;;22.75;60.67
50430;BME280;36359;41.556;-8.418;2022-07-25T08:35:48;100659.91;;;22.37;61.67
50430;BME280;36359;41.556;-8.418;2022-07-25T08:38:14;100648.84;;;22.37;61.63
50430;BME280;36359;41.556;-8.418;2022-07-25T08:40:40;100646.13;;;22.23;63.81
50430;BME280;36359;41.556;-8.418;2022-07-25T08:43:10;100656.97;;;22.25;62.26
50430;BME280;36359;41.556;-8.418;2022-07-25T08:45:49;100652.22;;;22.45;61.59
50430;BME280;36359;41.556;-8.418;2022-07-25T08:48:17;100650.09;;;22.79;61.44
50430;BME280;36359;41.556;-8.418;2022-07-25T08:50:45;100658.53;;;22.59;62.11
50430;BME280;36359;41.556;-8.418;2022-07-25T08:53:12;100660.84;;;22.62;62.55
50430;BME280;36359;41.556;-8.418;2022-07-25T08:55:38;100661.38;;;22.39;63.04
50430;BME280;36359;41.556;-8.418;2022-07-25T08:58:04;100657.25;;;21.97;64.57
50430;BME280;36359;41.556;-8.418;2022-07-25T09:00:30;100646.63;;;22.00;64.55
50430;BME280;36359;41.556;-8.418;2022-07-25T09:02:58;100655.63;;;22.41;64.19
50430;BME280;36359;41.556;-8.418;2022-07-25T09:05:26;100655.72;;;22.21;63.98
50430;BME280;36359;41.556;-8.418;2022-07-25T09:07:53;100656.56;;;22.15;64.99
50430;BME280;36359;41.556;-8.418;2022-07-25T09:12:58;100660.09;;;22.35;63.67
50430;BME280;36359;41.556;-8.418;2022-07-25T09:15:36;100659.50;;;22.33;63.60
50430;BME280;36359;41.556;-8.418;2022-07-25T09:18:05;100660.69;;;22.89;62.45
50430;BME280;36359;41.556;-8.418;2022-07-25T09:23:10;100656.91;;;23.40;60.60
50430;BME280;36359;41.556;-8.418;2022-07-25T09:25:37;100647.47;;;23.48;60.59
50430;BME280;36359;41.556;-8.418;2022-07-25T09:28:15;100654.97;;;24.09;58.63
50430;BME280;36359;41.556;-8.418;2022-07-25T09:30:59;100656.25;;;23.70;59.45
50430;BME280;36359;41.556;-8.418;2022-07-25T09:33:26;100659.88;;;23.64;59.33
50430;BME280;36359;41.556;-8.418;2022-07-25T09:35:53;100654.63;;;23.55;59.69
50430;BME280;36359;41.556;-8.418;2022-07-25T09:38:21;100659.63;;;23.72;59.42
50430;BME280;36359;41.556;-8.418;2022-07-25T09:41:01;100655.56;;;24.11;58.36
50430;BME280;36359;41.556;-8.418;2022-07-25T09:43:36;100664.88;;;24.35;57.81
50430;BME280;36359;41.556;-8.418;2022-07-25T09:46:03;100660.63;;;24.69;56.88
50430;BME280;36359;41.556;-8.418;2022-07-25T09:48:29;100664.16;;;24.77;56.88
50430;BME280;36359;41.556;-8.418;2022-07-25T09:50:56;100663.75;;;24.24;57.96
50430;BME280;36359;41.556;-8.418;2022-07-25T09:53:23;100669.44;;;24.48;57.45
50430;BME280;36359;41.556;-8.418;2022-07-25T09:55:49;100665.06;;;24.70;56.87
50430;BME280;36359;41.556;-8.418;2022-07-25T09:58:17;100663.09;;;24.89;56.55
50430;BME280;36359;41.556;-8.418;2022-07-25T10:00:43;100667.38;;;24.74;57.53
50430;BME280;36359;41.556;-8.418;2022-07-25T10:08:36;100649.25;;;25.01;56.84
50430;BME280;36359;41.556;-8.418;2022-07-25T10:11:02;100657.41;;;25.14;56.12
50430;BME280;36359;41.556;-8.418;2022-07-25T10:13:33;100657.63;;;25.13;56.78
50430;BME280;36359;41.556;-8.418;2022-07-25T10:16:00;100654.56;;;25.33;54.74
50430;BME280;36359;41.556;-8.418;2022-07-25T10:18:27;100655.06;;;25.53;55.18
50430;BME280;36359;41.556;-8.418;2022-07-25T10:21:07;100657.34;;;25.80;54.61
50430;BME280;36359;41.556;-8.418;2022-07-25T10:23:33;100653.97;;;25.90;53.42
50430;BME280;36359;41.556;-8.418;2022-07-25T10:26:01;100651.53;;;25.70;55.29
50430;BME280;36359;41.556;-8.418;2022-07-25T10:28:35;100648.91;;;25.87;54.75
50430;BME280;36359;41.556;-8.418;2022-07-25T10:31:02;100658.44;;;26.02;53.54
50430;BME280;36359;41.556;-8.418;2022-07-25T10:33:27;100659.06;;;25.93;54.14
50430;BME280;36359;41.556;-8.418;2022-07-25T10:36:04;100652.28;;;26.00;53.32
50430;BME280;36359;41.556;-8.418;2022-07-25T10:38:31;100641.88;;;25.60;55.31
50430;BME280;36359;41.556;-8.418;2022-07-25T10:41:00;100643.06;;;25.65;55.47
50430;BME280;36359;41.556;-8.418;2022-07-25T10:43:26;100640.91;;;25.90;54.22
50430;BME280;36359;41.556;-8.418;2022-07-25T10:45:57;100634.81;;;26.17;53.05
50430;BME280;36359;41.556;-8.418;2022-07-25T10:48:26;100638.00;;;26.49;53.16
50430;BME280;36359;41.556;-8.418;2022-07-25T10:51:30;100637.19;;;26.94;52.84
50430;BME280;36359;41.556;-8.418;2022-07-25T10:53:48;100635.59;;;26.41;52.89
50430;BME280;36359;41.556;-8.418;2022-07-25T10:56:17;100634.69;;;26.23;54.00
50430;BME280;36359;41.556;-8.418;2022-07-25T10:58:50;100634.97;;;26.62;53.42
50430;BME280;36359;41.556;-8.418;2022-07-25T11:01:28;100627.13;;;26.76;52.33
50430;BME280;36359;41.556;-8.418;2022-07-25T11:03:56;100635.78;;;26.91;52.33
50430;BME280;36359;41.556;-8.418;2022-07-25T11:06:33;100631.84;;;26.76;52.29
50430;BME280;36359;41.556;-8.418;2022-07-25T11:08:59;100626.13;;;26.65;52.13
50430;BME280;36359;41.556;-8.418;2022-07-25T11:11:41;100620.41;;;27.06;51.55
50430;BME280;36359;41.556;-8.418;2022-07-25T11:14:22;100635.47;;;27.55;51.44
50430;BME280;36359;41.556;-8.418;2022-07-25T11:16:50;100628.00;;;27.78;50.43
50430;BME280;36359;41.556;-8.418;2022-07-25T11:19:25;100623.91;;;27.63;50.77
50430;BME280;36359;41.556;-8.418;2022-07-25T11:21:56;100621.81;;;27.54;49.83
50430;BME280;36359;41.556;-8.418;2022-07-25T11:24:43;100615.72;;;27.57;50.26
50430;BME280;36359;41.556;-8.418;2022-07-25T11:27:12;100618.81;;;27.77;50.45
50430;BME280;36359;41.556;-8.418;2022-07-25T11:29:40;100617.63;;;27.73;50.64
50430;BME280;36359;41.556;-8.418;2022-07-25T11:32:09;100609.72;;;27.65;50.16
50430;BME280;36359;41.556;-8.418;2022-07-25T11:34:37;100610.88;;;27.69;49.48
50430;BME280;36359;41.556;-8.418;2022-07-25T11:37:07;100606.16;;;28.08;49.72
50430;BME280;36359;41.556;-8.418;2022-07-25T11:39:35;100613.34;;;28.26;48.93
50430;BME280;36359;41.556;-8.418;2022-07-25T11:42:09;100600.69;;;27.58;49.77
50430;BME280;36359;41.556;-8.418;2022-07-25T11:44:40;100603.75;;;27.95;48.62
50430;BME280;36359;41.556;-8.418;2022-07-25T11:47:20;100603.22;;;28.20;49.30
50430;BME280;36359;41.556;-8.418;2022-07-25T11:49:48;100596.84;;;28.42;48.27
50430;BME280;36359;41.556;-8.418;2022-07-25T11:52:25;100593.91;;;28.53;48.75
50430;BME280;36359;41.556;-8.418;2022-07-25T11:54:57;100589.78;;;28.93;46.76
50430;BME280;36359;41.556;-8.418;2022-07-25T11:57:25;100583.91;;;28.36;48.24
50430;BME280;36359;41.556;-8.418;2022-07-25T11:59:52;100591.16;;;28.91;47.58
50430;BME280;36359;41.556;-8.418;2022-07-25T12:02:33;100585.78;;;29.06;46.69
50430;BME280;36359;41.556;-8.418;2022-07-25T12:05:07;100574.75;;;28.94;47.03
50430;BME280;36359;41.556;-8.418;2022-07-25T12:07:41;100583.59;;;28.86;46.22
50430;BME280;36359;41.556;-8.418;2022-07-25T12:15:11;100584.00;;;28.68;47.40
50430;BME280;36359;41.556;-8.418;2022-07-25T12:17:40;100569.09;;;28.89;46.91
50430;BME280;36359;41.556;-8.418;2022-07-25T12:20:21;100581.19;;;29.27;45.91
50430;BME280;36359;41.556;-8.418;2022-07-25T12:22:49;100585.78;;;29.11;46.03
50430;BME280;36359;41.556;-8.418;2022-07-25T12:25:16;100584.53;;;29.67;46.73
50430;BME280;36359;41.556;-8.418;2022-07-25T12:27:42;100565.34;;;29.85;45.10
50430;BME280;36359;41.556;-8.418;2022-07-25T12:30:09;100582.75;;;30.03;44.86
50430;BME280;36359;41.556;-8.418;2022-07-25T12:32:35;100575.78;;;30.05;44.36
50430;BME280;36359;41.556;-8.418;2022-07-25T12:35:04;100571.41;;;29.67;45.38
50430;BME280;36359;41.556;-8.418;2022-07-25T12:37:30;100571.25;;;29.89;45.27
50430;BME280;36359;41.556;-8.418;2022-07-25T12:39:56;100568.72;;;29.87;45.79
50430;BME280;36359;41.556;-8.418;2022-07-25T12:42:23;100564.63;;;29.15;46.07
50430;BME280;36359;41.556;-8.418;2022-07-25T12:44:49;100559.91;;;28.89;46.88
50430;BME280;36359;41.556;-8.418;2022-07-25T12:47:15;100557.88;;;29.54;45.06
50430;BME280;36359;41.556;-8.418;2022-07-25T12:49:41;100553.72;;;29.61;44.84
50430;BME280;36359;41.556;-8.418;2022-07-25T12:52:06;100555.06;;;30.01;43.68
50430;BME280;36359;41.556;-8.418;2022-07-25T12:54:32;100545.88;;;29.58;44.11
50430;BME280;36359;41.556;-8.418;2022-07-25T12:56:58;100555.78;;;29.71;43.84
50430;BME280;36359;41.556;-8.418;2022-07-25T12:59:24;100557.25;;;29.94;43.76
50430;BME280;36359;41.556;-8.418;2022-07-25T13:01:50;100564.56;;;29.95;43.93